createdAt,value
2018-07-12T00:00:28.909Z,30.50
2018-07-12T00:01:28.894Z,31.00
2018-07-12T00:02:28.879Z,24.80
2018-07-12T00:03:28.863Z,23.20
2018-07-12T00:04:28.854Z,22.00
2018-07-12T00:05:28.834Z,24.30
2018-07-12T00:06:28.826Z,23.30
2018-07-12T00:07:28.829Z,23.40
2018-07-12T00:08:28.897Z,22.90
2018-07-12T00:09:28.782Z,23.20
2018-07-12T00:10:28.757Z,24.70
2018-07-12T00:11:28.744Z,24.60
2018-07-12T00:12:28.727Z,25.00
2018-07-12T00:13:28.711Z,26.60
2018-07-12T00:14:28.703Z,31.10
2018-07-12T00:15:28.683Z,26.10
2018-07-12T00:16:28.671Z,32.10
2018-07-12T00:17:28.654Z,31.90
2018-07-12T00:18:28.638Z,28.00
2018-07-12T00:19:28.623Z,29.90
2018-07-12T00:20:28.609Z,28.70
2018-07-12T00:21:28.592Z,30.60
2018-07-12T00:22:28.576Z,27.50
2018-07-12T00:23:28.562Z,29.90
2018-07-12T00:24:28.547Z,33.60
2018-07-12T00:25:28.531Z,33.30
2018-07-12T00:26:28.518Z,32.20
2018-07-12T00:27:28.501Z,28.00
2018-07-12T00:28:28.492Z,29.40
2018-07-12T00:29:28.469Z,29.60
2018-07-12T00:30:28.455Z,29.50
2018-07-12T00:31:28.442Z,26.40
2018-07-12T00:32:28.426Z,31.50
2018-07-12T00:33:28.411Z,30.80
2018-07-12T00:34:28.403Z,34.10
2018-07-12T00:35:28.433Z,31.70
2018-07-12T00:36:28.366Z,38.30
2018-07-12T00:37:28.349Z,34.90
2018-07-12T00:38:28.344Z,32.10
2018-07-12T00:39:28.321Z,32.30
2018-07-12T00:40:28.306Z,30.90
2018-07-12T00:41:28.293Z,29.60
2018-07-12T00:42:28.277Z,30.70
2018-07-12T00:43:28.261Z,34.50
2018-07-12T00:44:28.246Z,33.80
2018-07-12T00:45:28.231Z,36.90
2018-07-12T00:46:28.215Z,35.60
2018-07-12T00:47:28.200Z,34.30
2018-07-12T00:48:28.185Z,34.30
2018-07-12T00:49:28.171Z,41.10
2018-07-12T00:50:28.156Z,38.50
2018-07-12T00:51:28.139Z,32.80
2018-07-12T00:52:28.123Z,31.40
2018-07-12T00:53:28.109Z,32.10
2018-07-12T00:54:28.098Z,32.20
2018-07-12T00:55:28.080Z,32.00
2018-07-12T00:56:28.063Z,36.00
2018-07-12T00:57:28.056Z,34.70
2018-07-12T00:58:28.033Z,38.60
2018-07-12T00:59:28.019Z,36.20
2018-07-12T01:00:28.003Z,33.50
2018-07-12T01:01:27.987Z,35.80
2018-07-12T01:02:27.971Z,34.10
2018-07-12T01:03:27.961Z,39.30
2018-07-12T01:04:27.942Z,37.60
2018-07-12T01:05:27.926Z,42.00
2018-07-12T01:06:27.913Z,44.50
2018-07-12T01:07:27.897Z,36.40
2018-07-12T01:08:27.889Z,37.50
2018-07-12T01:09:27.864Z,40.20
2018-07-12T01:10:27.849Z,42.20
2018-07-12T01:11:27.842Z,43.30
2018-07-12T01:12:27.820Z,42.90
2018-07-12T01:13:27.806Z,42.50
2018-07-12T01:14:27.792Z,40.60
2018-07-12T01:15:27.773Z,38.20
2018-07-12T01:16:27.759Z,40.80
2018-07-12T01:17:27.744Z,42.00
2018-07-12T01:18:27.732Z,39.50
2018-07-12T01:19:27.715Z,39.70
2018-07-12T01:20:27.706Z,40.00
2018-07-12T01:21:27.692Z,43.70
2018-07-12T01:22:27.667Z,45.00
2018-07-12T01:23:27.655Z,44.00
2018-07-12T01:24:27.637Z,39.10
2018-07-12T01:25:27.620Z,41.20
2018-07-12T01:26:27.606Z,40.50
2018-07-12T01:27:27.592Z,41.80
2018-07-12T01:28:27.576Z,42.90
2018-07-12T01:29:27.560Z,34.30
2018-07-12T01:30:27.544Z,37.20
2018-07-12T01:31:27.539Z,39.00
2018-07-12T01:32:27.517Z,38.10
2018-07-12T01:33:27.498Z,42.80
2018-07-12T01:34:27.496Z,39.10
2018-07-12T01:35:27.467Z,39.10
2018-07-12T01:36:27.456Z,40.10
2018-07-12T01:37:27.438Z,35.80
2018-07-12T01:38:27.422Z,36.80
2018-07-12T01:39:27.415Z,38.80
2018-07-12T01:40:27.392Z,37.80
2018-07-12T01:41:27.379Z,44.00
2018-07-12T01:42:27.369Z,36.70
2018-07-12T01:43:27.348Z,42.80
2018-07-12T01:44:27.329Z,39.40
2018-07-12T01:45:27.313Z,37.00
2018-07-12T01:46:27.300Z,41.50
2018-07-12T01:47:27.288Z,36.80
2018-07-12T01:48:27.276Z,40.60
2018-07-12T01:49:27.252Z,39.60
2018-07-12T01:50:27.236Z,42.50
2018-07-12T01:51:27.222Z,45.20
2018-07-12T01:52:27.208Z,44.50
2018-07-12T01:53:27.192Z,43.90
2018-07-12T01:54:27.174Z,43.50
2018-07-12T01:55:27.174Z,42.30
2018-07-12T01:56:27.143Z,39.70
2018-07-12T01:57:27.129Z,41.50
2018-07-12T01:58:27.111Z,44.90
2018-07-12T01:59:27.097Z,44.80
2018-07-12T02:00:27.131Z,36.50
2018-07-12T02:01:27.065Z,35.90
2018-07-12T02:02:27.052Z,34.70
2018-07-12T02:03:27.036Z,35.00
2018-07-12T02:04:27.021Z,42.20
2018-07-12T02:05:27.002Z,38.40
2018-07-12T02:06:26.989Z,38.30
2018-07-12T02:07:26.978Z,34.30
2018-07-12T02:08:26.959Z,38.40
2018-07-12T02:09:26.940Z,36.70
2018-07-12T02:10:26.928Z,35.60
2018-07-12T02:11:26.912Z,36.50
2018-07-12T02:12:26.895Z,37.80
2018-07-12T02:13:26.879Z,36.40
2018-07-12T02:14:26.884Z,41.10
2018-07-12T02:15:26.849Z,40.00
2018-07-12T02:16:26.834Z,35.30
2018-07-12T02:17:26.821Z,44.00
2018-07-12T02:18:26.802Z,44.60
2018-07-12T02:19:26.786Z,50.50
2018-07-12T02:20:26.772Z,39.80
2018-07-12T02:21:26.765Z,43.80
2018-07-12T02:22:26.747Z,42.40
2018-07-12T02:23:26.725Z,41.70
2018-07-12T02:24:26.712Z,44.20
2018-07-12T02:25:26.693Z,45.20
2018-07-12T02:26:26.680Z,40.20
2018-07-12T02:27:26.664Z,43.50
2018-07-12T02:28:26.647Z,40.40
2018-07-12T02:29:26.632Z,40.30
2018-07-12T02:30:26.615Z,39.90
2018-07-12T02:31:26.599Z,37.00
2018-07-12T02:32:26.590Z,44.40
2018-07-12T02:33:26.571Z,37.50
2018-07-12T02:34:26.557Z,37.70
2018-07-12T02:35:26.547Z,42.80
2018-07-12T02:36:26.547Z,44.00
2018-07-12T02:37:26.513Z,41.40
2018-07-12T02:38:26.490Z,41.30
2018-07-12T02:39:26.476Z,41.30
2018-07-12T02:40:26.460Z,41.00
2018-07-12T02:41:26.444Z,35.80
2018-07-12T02:42:26.429Z,41.50
2018-07-12T02:43:26.414Z,41.50
2018-07-12T02:44:26.399Z,39.20
2018-07-12T02:45:26.381Z,44.80
2018-07-12T02:46:26.369Z,39.70
2018-07-12T02:47:26.352Z,44.20
2018-07-12T02:48:26.404Z,42.60
2018-07-12T02:49:26.320Z,38.20
2018-07-12T02:50:26.304Z,44.30
2018-07-12T02:51:26.288Z,47.20
2018-07-12T02:52:26.273Z,41.30
2018-07-12T02:53:26.266Z,42.30
2018-07-12T02:54:26.253Z,41.60
2018-07-12T02:55:26.226Z,39.70
2018-07-12T02:56:26.211Z,41.20
2018-07-12T02:57:26.195Z,40.90
2018-07-12T02:58:26.179Z,40.00
2018-07-12T02:59:26.164Z,37.30
2018-07-12T03:00:26.151Z,41.20
2018-07-12T03:01:26.131Z,39.10
2018-07-12T03:02:26.115Z,37.40
2018-07-12T03:03:26.100Z,40.00
2018-07-12T03:04:26.087Z,44.00
2018-07-12T03:05:26.068Z,39.90
2018-07-12T03:06:26.062Z,35.50
2018-07-12T03:07:26.037Z,40.40
2018-07-12T03:08:26.021Z,42.60
2018-07-12T03:09:26.022Z,40.40
2018-07-12T03:10:25.989Z,36.60
2018-07-12T03:11:25.977Z,37.60
2018-07-12T03:12:25.961Z,36.60
2018-07-12T03:13:25.944Z,39.90
2018-07-12T03:14:25.929Z,39.70
2018-07-12T03:15:25.915Z,36.70
2018-07-12T03:16:25.895Z,35.00
2018-07-12T03:17:25.879Z,37.80
2018-07-12T03:18:25.863Z,37.40
2018-07-12T03:19:25.849Z,37.70
2018-07-12T03:20:25.833Z,40.00
2018-07-12T03:21:25.816Z,45.10
2018-07-12T03:22:25.902Z,42.40
2018-07-12T03:23:25.785Z,38.20
2018-07-12T03:24:25.769Z,40.80
2018-07-12T03:25:25.753Z,42.00
2018-07-12T03:26:25.737Z,45.40
2018-07-12T03:27:25.721Z,39.30
2018-07-12T03:28:25.707Z,47.30
2018-07-12T03:29:25.689Z,42.20
2018-07-12T03:30:25.676Z,39.30
2018-07-12T03:31:25.665Z,39.70
2018-07-12T03:32:25.645Z,36.90
2018-07-12T03:33:25.633Z,37.00
2018-07-12T03:34:25.612Z,39.20
2018-07-12T03:35:25.596Z,34.70
2018-07-12T03:36:25.581Z,36.70
2018-07-12T03:37:25.564Z,34.30
2018-07-12T03:38:25.554Z,37.70
2018-07-12T03:39:25.534Z,43.00
2018-07-12T03:40:25.557Z,42.00
2018-07-12T03:41:25.510Z,38.60
2018-07-12T03:42:25.484Z,35.40
2018-07-12T03:43:25.473Z,40.70
2018-07-12T03:44:25.459Z,39.60
2018-07-12T03:45:25.437Z,34.60
2018-07-12T03:46:25.421Z,35.50
2018-07-12T03:47:25.405Z,35.90
2018-07-12T03:48:25.392Z,40.50
2018-07-12T03:49:25.384Z,42.70
2018-07-12T03:50:25.361Z,34.00
2018-07-12T03:51:25.353Z,39.00
2018-07-12T03:52:25.330Z,38.90
2018-07-12T03:53:25.328Z,38.10
2018-07-12T03:54:25.296Z,38.50
2018-07-12T03:55:25.294Z,38.30
2018-07-12T03:56:25.262Z,37.00
2018-07-12T03:57:25.251Z,38.80
2018-07-12T03:58:25.233Z,39.10
2018-07-12T03:59:25.228Z,38.90
2018-07-12T04:00:25.212Z,36.10
2018-07-12T04:01:25.187Z,40.50
2018-07-12T04:02:25.176Z,39.60
2018-07-12T04:03:25.163Z,36.80
2018-07-12T04:04:25.139Z,35.30
2018-07-12T04:05:25.124Z,36.10
2018-07-12T04:06:25.109Z,34.80
2018-07-12T04:07:25.093Z,39.50
2018-07-12T04:08:25.077Z,35.80
2018-07-12T04:09:25.062Z,34.90
2018-07-12T04:10:25.045Z,31.60
2018-07-12T04:11:25.030Z,35.60
2018-07-12T04:12:25.014Z,31.30
2018-07-12T04:13:24.995Z,34.10
2018-07-12T04:14:24.982Z,39.20
2018-07-12T04:15:24.965Z,37.70
2018-07-12T04:16:24.949Z,35.70
2018-07-12T04:17:24.933Z,39.00
2018-07-12T04:18:24.917Z,39.00
2018-07-12T04:19:24.901Z,35.20
2018-07-12T04:20:24.889Z,39.50
2018-07-12T04:21:24.870Z,35.80
2018-07-12T04:22:24.852Z,36.70
2018-07-12T04:23:24.848Z,33.20
2018-07-12T04:24:24.823Z,34.10
2018-07-12T04:25:24.807Z,39.10
2018-07-12T04:26:24.790Z,34.90
2018-07-12T04:27:24.783Z,35.90
2018-07-12T04:28:24.760Z,44.20
2018-07-12T04:29:24.749Z,38.20
2018-07-12T04:30:24.730Z,38.60
2018-07-12T04:31:24.714Z,38.80
2018-07-12T04:32:24.697Z,38.00
2018-07-12T04:33:24.683Z,35.10
2018-07-12T04:34:24.671Z,35.90
2018-07-12T04:35:24.701Z,41.80
2018-07-12T04:36:24.635Z,35.20
2018-07-12T04:37:24.620Z,35.70
2018-07-12T04:38:24.603Z,31.30
2018-07-12T04:39:24.588Z,35.80
2018-07-12T04:40:24.578Z,36.70
2018-07-12T04:41:24.558Z,43.40
2018-07-12T04:42:24.544Z,37.70
2018-07-12T04:43:24.525Z,38.40
2018-07-12T04:44:24.511Z,37.60
2018-07-12T04:45:24.495Z,33.60
2018-07-12T04:46:24.479Z,36.00
2018-07-12T04:47:25.198Z,37.20
2018-07-12T04:48:24.452Z,37.20
2018-07-12T04:49:24.450Z,37.90
2018-07-12T04:50:24.417Z,35.50
2018-07-12T04:51:24.404Z,31.50
2018-07-12T04:52:24.388Z,35.50
2018-07-12T04:53:24.372Z,34.50
2018-07-12T04:54:24.365Z,36.60
2018-07-12T04:55:24.341Z,36.00
2018-07-12T04:56:24.326Z,32.10
2018-07-12T04:57:24.313Z,36.20
2018-07-12T04:58:24.416Z,35.10
2018-07-12T04:59:24.280Z,33.60
2018-07-12T05:00:24.264Z,35.70
2018-07-12T05:01:24.260Z,38.80
2018-07-12T05:02:24.234Z,36.50
2018-07-12T05:03:24.220Z,34.40
2018-07-12T05:04:24.203Z,36.00
2018-07-12T05:05:24.187Z,35.10
2018-07-12T05:06:24.175Z,34.10
2018-07-12T05:07:24.362Z,36.70
2018-07-12T05:08:24.151Z,34.00
2018-07-12T05:09:24.126Z,37.60
2018-07-12T05:10:24.168Z,33.60
2018-07-12T05:11:24.097Z,34.60
2018-07-12T05:12:24.083Z,33.70
2018-07-12T05:13:24.068Z,34.00
2018-07-12T05:14:24.059Z,29.70
2018-07-12T05:15:24.038Z,37.30
2018-07-12T05:16:24.040Z,30.30
2018-07-12T05:17:24.007Z,36.00
2018-07-12T05:18:23.995Z,33.90
2018-07-12T05:19:23.975Z,34.70
2018-07-12T05:20:23.967Z,34.70
2018-07-12T05:21:23.946Z,36.80
2018-07-12T05:22:23.939Z,34.00
2018-07-12T05:23:23.926Z,32.20
2018-07-12T05:24:23.902Z,34.20
2018-07-12T05:25:23.894Z,34.30
2018-07-12T05:26:23.869Z,30.70
2018-07-12T05:27:23.871Z,38.70
2018-07-12T05:28:23.841Z,30.90
2018-07-12T05:29:23.828Z,33.30
2018-07-12T05:30:23.811Z,30.10
2018-07-12T05:31:23.796Z,34.00
2018-07-12T05:32:23.783Z,31.50
2018-07-12T05:33:23.766Z,33.40
2018-07-12T05:34:23.752Z,29.10
2018-07-12T05:35:23.738Z,30.40
2018-07-12T05:36:23.722Z,27.80
2018-07-12T05:37:23.707Z,32.20
2018-07-12T05:38:23.691Z,31.70
2018-07-12T05:39:23.725Z,27.70
2018-07-12T05:40:23.670Z,30.30
2018-07-12T05:41:23.656Z,27.40
2018-07-12T05:42:23.632Z,26.10
2018-07-12T05:43:23.621Z,30.80
2018-07-12T05:44:23.602Z,28.70
2018-07-12T05:45:23.589Z,33.10
2018-07-12T05:46:23.581Z,23.90
2018-07-12T05:47:23.561Z,26.70
2018-07-12T05:48:23.545Z,25.20
2018-07-12T05:49:23.530Z,20.00
2018-07-12T05:50:23.516Z,26.70
2018-07-12T05:51:23.504Z,23.70
2018-07-12T05:52:23.489Z,22.00
2018-07-12T05:53:23.476Z,22.70
2018-07-12T05:54:23.462Z,21.10
2018-07-12T05:55:23.451Z,18.10
2018-07-12T05:56:23.439Z,18.30
2018-07-12T05:57:23.482Z,21.20
2018-07-12T05:58:23.415Z,20.30
2018-07-12T05:59:23.411Z,21.30
2018-07-12T06:00:23.400Z,20.60
2018-07-12T06:01:23.379Z,19.70
2018-07-12T06:02:23.378Z,22.10
2018-07-12T06:03:23.366Z,24.10
2018-07-12T06:04:23.358Z,21.90
2018-07-12T06:05:23.348Z,17.10
2018-07-12T06:06:23.338Z,24.00
2018-07-12T06:07:23.329Z,25.60
2018-07-12T06:08:23.312Z,18.30
2018-07-12T06:09:23.304Z,17.00
2018-07-12T06:10:23.307Z,17.80
2018-07-12T06:11:23.288Z,20.70
2018-07-12T06:12:23.279Z,17.50
2018-07-12T06:13:23.272Z,16.10
2018-07-12T06:14:23.270Z,20.70
2018-07-12T06:15:23.265Z,17.20
2018-07-12T06:16:23.250Z,18.30
2018-07-12T06:17:23.245Z,15.50
2018-07-12T06:18:23.238Z,18.40
2018-07-12T06:19:23.230Z,13.80
2018-07-12T06:20:23.223Z,19.40
2018-07-12T06:21:23.218Z,18.90
2018-07-12T06:22:23.216Z,18.60
2018-07-12T06:23:23.203Z,16.50
2018-07-12T06:24:23.200Z,17.00
2018-07-12T06:25:23.192Z,18.80
2018-07-12T06:26:23.188Z,17.70
2018-07-12T06:27:23.182Z,19.40
2018-07-12T06:28:23.182Z,18.00
2018-07-12T06:29:23.171Z,20.50
2018-07-12T06:30:23.169Z,18.20
2018-07-12T06:31:23.172Z,19.50
2018-07-12T06:32:23.161Z,19.90
2018-07-12T06:33:23.163Z,16.80
2018-07-12T06:34:23.149Z,22.30
2018-07-12T06:35:23.145Z,13.00
2018-07-12T06:36:23.141Z,19.70
2018-07-12T06:37:23.137Z,15.60
2018-07-12T06:38:23.130Z,23.00
2018-07-12T06:39:23.128Z,19.50
2018-07-12T06:40:23.125Z,16.00
2018-07-12T06:41:23.117Z,19.40
2018-07-12T06:42:23.114Z,16.20
2018-07-12T06:43:23.112Z,18.40
2018-07-12T06:44:23.110Z,18.10
2018-07-12T06:45:23.109Z,19.20
2018-07-12T06:46:23.101Z,14.50
2018-07-12T06:47:23.096Z,18.30
2018-07-12T06:48:23.093Z,16.90
2018-07-12T06:49:23.090Z,15.10
2018-07-12T06:50:23.095Z,20.30
2018-07-12T06:51:23.087Z,20.50
2018-07-12T06:52:23.092Z,13.90
2018-07-12T06:53:23.089Z,15.40
2018-07-12T06:54:23.077Z,14.70
2018-07-12T06:55:23.077Z,17.30
2018-07-12T06:56:23.075Z,15.90
2018-07-12T06:57:23.072Z,16.30
2018-07-12T06:58:23.078Z,14.30
2018-07-12T06:59:23.069Z,17.80
2018-07-12T07:00:23.071Z,18.80
2018-07-12T07:01:23.064Z,16.70
2018-07-12T07:02:23.065Z,14.20
2018-07-12T07:03:23.064Z,16.10
2018-07-12T07:04:23.065Z,15.90
2018-07-12T07:05:23.060Z,13.70
2018-07-12T07:06:23.065Z,18.20
2018-07-12T07:07:23.059Z,15.10
2018-07-12T07:08:23.060Z,21.50
2018-07-12T07:09:23.061Z,13.50
2018-07-12T07:10:23.059Z,16.90
2018-07-12T07:11:23.078Z,13.80
2018-07-12T07:12:23.059Z,15.50
2018-07-12T07:13:23.060Z,16.30
2018-07-12T07:14:23.056Z,17.40
2018-07-12T07:15:23.055Z,13.50
2018-07-12T07:16:23.068Z,16.40
2018-07-12T07:17:23.203Z,16.80
2018-07-12T07:18:23.054Z,17.60
2018-07-12T07:19:23.051Z,15.70
2018-07-12T07:20:23.052Z,15.40
2018-07-12T07:21:23.049Z,16.40
2018-07-12T07:22:23.050Z,16.70
2018-07-12T07:23:23.057Z,13.90
2018-07-12T07:24:23.049Z,17.10
2018-07-12T07:25:23.047Z,17.30
2018-07-12T07:26:23.068Z,15.90
2018-07-12T07:27:23.049Z,15.50
2018-07-12T07:28:23.055Z,14.50
2018-07-12T07:29:23.049Z,13.30
2018-07-12T07:30:23.057Z,19.10
2018-07-12T07:31:23.049Z,15.90
2018-07-12T07:32:23.108Z,16.30
2018-07-12T07:33:23.061Z,14.00
2018-07-12T07:34:23.051Z,16.80
2018-07-12T07:35:23.065Z,15.20
2018-07-12T07:36:23.051Z,14.40
2018-07-12T07:37:23.051Z,14.00
2018-07-12T07:38:23.051Z,18.60
2018-07-12T07:39:23.052Z,16.90
2018-07-12T07:40:23.053Z,17.00
2018-07-12T07:41:23.067Z,16.60
2018-07-12T07:42:23.049Z,13.00
2018-07-12T07:43:23.142Z,14.60
2018-07-12T07:44:23.049Z,15.20
2018-07-12T07:45:23.045Z,19.50
2018-07-12T07:46:23.045Z,16.20
2018-07-12T07:47:23.051Z,20.10
2018-07-12T07:48:23.044Z,16.20
2018-07-12T07:49:23.048Z,14.80
2018-07-12T07:50:23.039Z,17.70
2018-07-12T07:51:23.033Z,15.40
2018-07-12T07:52:23.030Z,14.80
2018-07-12T07:53:23.036Z,12.90
2018-07-12T07:54:23.353Z,13.40
2018-07-12T07:55:23.746Z,17.60
2018-07-12T07:56:23.356Z,13.80
2018-07-12T07:57:23.020Z,17.40
2018-07-12T07:58:23.338Z,16.60
2018-07-12T08:01:23.719Z,15.40
2018-07-12T08:02:23.323Z,19.10
2018-07-12T08:03:23.092Z,17.40
2018-07-12T08:04:23.185Z,17.40
2018-07-12T08:05:23.293Z,17.10
2018-07-12T08:06:23.338Z,23.60
2018-07-12T08:07:23.514Z,18.10
2018-07-12T08:08:22.967Z,23.20
2018-07-12T08:09:23.006Z,17.10
2018-07-12T08:10:22.956Z,17.00
2018-07-12T08:11:22.945Z,16.80
2018-07-12T08:12:22.943Z,17.90
2018-07-12T08:13:22.943Z,17.00
2018-07-12T08:14:22.931Z,19.30
2018-07-12T08:15:22.926Z,15.60
2018-07-12T08:16:23.034Z,14.50
2018-07-12T08:17:22.925Z,15.80
2018-07-12T08:18:22.909Z,14.00
2018-07-12T08:19:22.906Z,19.00
2018-07-12T08:20:22.898Z,13.00
2018-07-12T08:21:22.896Z,13.00
2018-07-12T08:22:22.902Z,18.00
2018-07-12T08:23:22.889Z,14.10
2018-07-12T08:24:22.873Z,12.30
2018-07-12T08:25:22.866Z,14.40
2018-07-12T08:26:22.861Z,10.60
2018-07-12T08:27:22.855Z,12.40
2018-07-12T08:28:22.850Z,15.50
2018-07-12T08:29:22.841Z,14.10
2018-07-12T08:30:22.834Z,12.00
2018-07-12T08:31:22.845Z,13.20
2018-07-12T08:32:22.819Z,10.70
2018-07-12T08:33:22.877Z,13.60
2018-07-12T08:34:22.808Z,14.30
2018-07-12T08:35:22.799Z,16.20
2018-07-12T08:36:22.793Z,14.20
2018-07-12T08:37:22.788Z,14.00
2018-07-12T08:38:22.779Z,16.80
2018-07-12T08:39:22.776Z,17.30
2018-07-12T08:40:22.774Z,15.10
2018-07-12T08:41:22.755Z,13.70
2018-07-12T08:42:22.788Z,18.50
2018-07-12T08:43:22.753Z,14.80
2018-07-12T08:44:22.749Z,13.10
2018-07-12T08:45:22.727Z,11.00
2018-07-12T08:47:22.715Z,12.00
2018-07-12T08:48:22.756Z,12.60
2018-07-12T08:49:22.697Z,9.50
2018-07-12T08:50:23.231Z,11.00
2018-07-12T08:51:22.886Z,11.30
2018-07-12T08:52:22.790Z,11.20
2018-07-12T08:53:22.880Z,14.70
2018-07-12T08:54:22.872Z,12.60
2018-07-12T08:55:22.867Z,9.20
2018-07-12T08:56:22.858Z,11.90
2018-07-12T08:57:22.640Z,9.10
2018-07-12T08:58:22.632Z,12.00
2018-07-12T08:59:22.623Z,11.30
2018-07-12T09:00:22.626Z,11.40
2018-07-12T09:01:22.609Z,8.70
2018-07-12T09:02:22.606Z,13.60
2018-07-12T09:03:22.592Z,15.80
2018-07-12T09:04:22.595Z,11.40
2018-07-12T09:05:22.595Z,13.50
2018-07-12T09:06:22.578Z,11.50
2018-07-12T09:07:22.571Z,15.30
2018-07-12T09:08:22.566Z,12.90
2018-07-12T09:09:22.559Z,14.60
2018-07-12T09:10:22.551Z,14.30
2018-07-12T09:11:22.539Z,17.70
2018-07-12T09:12:22.531Z,13.60
2018-07-12T09:13:22.533Z,11.50
2018-07-12T09:14:22.530Z,10.70
2018-07-12T09:15:22.529Z,9.20
2018-07-12T09:16:22.521Z,11.70
2018-07-12T09:17:22.518Z,15.00
2018-07-12T09:18:22.499Z,12.00
2018-07-12T09:19:22.495Z,13.50
2018-07-12T09:20:22.486Z,11.60
2018-07-12T09:21:22.481Z,13.80
2018-07-12T09:22:22.473Z,11.30
2018-07-12T09:23:22.470Z,15.10
2018-07-12T09:24:22.467Z,11.30
2018-07-12T09:25:22.466Z,10.60
2018-07-12T09:26:22.456Z,12.60
2018-07-12T09:27:22.450Z,12.70
2018-07-12T09:28:22.446Z,9.20
2018-07-12T09:29:22.440Z,15.20
2018-07-12T09:30:22.435Z,13.30
2018-07-12T09:31:22.430Z,10.60
2018-07-12T09:32:22.424Z,12.10
2018-07-12T09:33:22.418Z,11.20
2018-07-12T09:34:22.415Z,11.40
2018-07-12T09:35:22.411Z,14.00
2018-07-12T09:36:22.412Z,13.40
2018-07-12T09:37:22.401Z,12.50
2018-07-12T09:38:22.393Z,12.80
2018-07-12T09:39:22.393Z,9.70
2018-07-12T09:40:22.385Z,12.20
2018-07-12T09:41:22.378Z,12.50
2018-07-12T09:42:22.380Z,13.50
2018-07-12T09:43:22.377Z,15.20
2018-07-12T09:44:22.368Z,14.70
2018-07-12T09:45:22.366Z,15.00
2018-07-12T09:46:22.395Z,12.60
2018-07-12T09:47:22.367Z,13.20
2018-07-12T09:48:22.349Z,10.20
2018-07-12T09:49:22.424Z,14.50
2018-07-12T09:50:22.350Z,15.20
2018-07-12T09:51:22.336Z,12.90
2018-07-12T09:52:22.325Z,10.40
2018-07-12T09:53:22.317Z,12.60
2018-07-12T09:54:22.321Z,11.50
2018-07-12T09:55:22.306Z,13.40
2018-07-12T09:56:22.482Z,12.30
2018-07-12T09:57:22.299Z,11.80
2018-07-12T09:58:22.293Z,16.00
2018-07-12T09:59:22.290Z,17.20
2018-07-12T10:00:22.287Z,12.80
2018-07-12T10:01:22.355Z,12.60
2018-07-12T10:02:22.273Z,16.10
2018-07-12T10:03:22.267Z,14.10
2018-07-12T10:04:22.270Z,14.90
2018-07-12T10:05:22.258Z,13.50
2018-07-12T10:06:22.252Z,15.70
2018-07-12T10:07:22.249Z,16.20
2018-07-12T10:08:22.240Z,15.00
2018-07-12T10:09:22.232Z,11.90
2018-07-12T10:10:22.229Z,15.00
2018-07-12T10:11:22.227Z,15.90
2018-07-12T10:12:22.220Z,15.70
2018-07-12T10:13:22.215Z,13.20
2018-07-12T10:14:22.216Z,12.50
2018-07-12T10:15:22.204Z,13.00
2018-07-12T10:16:22.200Z,13.60
2018-07-12T10:17:22.195Z,11.20
2018-07-12T10:18:22.193Z,13.60
2018-07-12T10:19:22.194Z,12.70
2018-07-12T10:20:22.188Z,14.80
2018-07-12T10:21:22.183Z,15.00
2018-07-12T10:22:22.189Z,13.80
2018-07-12T10:23:22.191Z,13.50
2018-07-12T10:24:22.184Z,16.40
2018-07-12T10:25:22.177Z,16.90
2018-07-12T10:26:22.176Z,17.20
2018-07-12T10:27:22.174Z,14.40
2018-07-12T10:28:22.228Z,15.10
2018-07-12T10:29:22.179Z,12.20
2018-07-12T10:30:22.175Z,11.70
2018-07-12T10:31:22.176Z,11.50
2018-07-12T10:32:22.175Z,11.60
2018-07-12T10:33:22.176Z,13.70
2018-07-12T10:34:22.180Z,16.40
2018-07-12T10:35:22.193Z,13.90
2018-07-12T10:36:22.186Z,10.80
2018-07-12T10:37:22.199Z,10.60
2018-07-12T10:38:22.184Z,12.90
2018-07-12T10:39:22.187Z,12.30
2018-07-12T10:40:22.188Z,12.10
2018-07-12T10:41:22.185Z,11.50
2018-07-12T10:42:22.190Z,15.20
2018-07-12T10:43:22.189Z,11.40
2018-07-12T10:44:22.208Z,14.20
2018-07-12T10:45:22.193Z,14.50
2018-07-12T10:46:22.204Z,11.20
2018-07-12T10:47:22.199Z,12.40
2018-07-12T10:48:22.202Z,13.20
2018-07-12T10:49:22.204Z,13.70
2018-07-12T10:50:22.215Z,13.10
2018-07-12T10:51:22.219Z,12.80
2018-07-12T10:52:22.217Z,13.50
2018-07-12T10:53:22.218Z,13.90
2018-07-12T10:54:22.227Z,12.90
2018-07-12T10:55:22.240Z,10.30
2018-07-12T10:56:22.232Z,15.50
2018-07-12T10:57:22.246Z,16.00
2018-07-12T10:58:22.239Z,14.00
2018-07-12T10:59:22.251Z,15.10
2018-07-12T11:00:22.260Z,12.00
2018-07-12T11:01:22.254Z,12.50
2018-07-12T11:02:22.261Z,14.30
2018-07-12T11:03:22.264Z,11.60
2018-07-12T11:04:22.268Z,13.90
2018-07-12T11:05:22.277Z,12.60
2018-07-12T11:06:22.273Z,13.20
2018-07-12T11:07:22.281Z,15.00
2018-07-12T11:08:22.288Z,16.70
2018-07-12T11:09:22.286Z,9.60
2018-07-12T11:10:22.345Z,13.20
2018-07-12T11:11:22.300Z,15.50
2018-07-12T11:12:22.302Z,13.30
2018-07-12T11:13:22.298Z,15.00
2018-07-12T11:14:22.303Z,13.30
2018-07-12T11:15:22.312Z,11.40
2018-07-12T11:16:22.326Z,14.00
2018-07-12T11:17:22.308Z,11.60
2018-07-12T11:18:22.315Z,12.90
2018-07-12T11:19:22.317Z,19.60
2018-07-12T11:20:22.321Z,14.90
2018-07-12T11:21:22.321Z,14.10
2018-07-12T11:22:22.325Z,15.90
2018-07-12T11:23:22.330Z,12.20
2018-07-12T11:24:22.332Z,15.10
2018-07-12T11:25:22.332Z,13.20
2018-07-12T11:26:22.336Z,16.10
2018-07-12T11:27:22.337Z,14.80
2018-07-12T11:28:22.337Z,17.50
2018-07-12T11:29:22.340Z,16.30
2018-07-12T11:30:22.400Z,14.80
2018-07-12T11:31:22.358Z,12.60
2018-07-12T11:32:22.345Z,15.90
2018-07-12T11:33:22.354Z,18.40
2018-07-12T11:34:22.349Z,15.30
2018-07-12T11:35:22.345Z,15.20
2018-07-12T11:36:22.415Z,20.00
2018-07-12T11:37:22.351Z,15.20
2018-07-12T11:38:22.352Z,14.80
2018-07-12T11:39:22.359Z,17.50
2018-07-12T11:40:22.343Z,17.20
2018-07-12T11:41:22.349Z,16.50
2018-07-12T11:42:22.343Z,16.80
2018-07-12T11:43:22.351Z,15.80
2018-07-12T11:44:22.341Z,13.00
2018-07-12T11:45:22.344Z,19.70
2018-07-12T11:46:22.341Z,14.70
2018-07-12T11:47:22.336Z,14.00
2018-07-12T11:48:22.344Z,15.80
2018-07-12T11:49:22.350Z,14.70
2018-07-12T11:50:22.348Z,13.90
2018-07-12T11:51:22.337Z,13.80
2018-07-12T11:52:22.336Z,15.40
2018-07-12T11:53:22.332Z,13.00
2018-07-12T11:54:22.343Z,14.90
2018-07-12T11:55:22.341Z,16.20
2018-07-12T11:56:22.332Z,16.20
2018-07-12T11:57:22.336Z,15.90
2018-07-12T11:58:22.342Z,14.30
2018-07-12T11:59:22.324Z,14.50
2018-07-12T12:00:22.321Z,14.90
2018-07-12T12:01:22.390Z,15.60
2018-07-12T12:02:22.323Z,12.90
2018-07-12T12:03:22.322Z,16.20
2018-07-12T12:04:22.315Z,15.10
2018-07-12T12:05:22.306Z,14.90
2018-07-12T12:06:22.310Z,12.20
2018-07-12T12:07:22.303Z,12.50
2018-07-12T12:08:22.307Z,11.70
2018-07-12T12:09:22.301Z,15.50
2018-07-12T12:10:22.291Z,13.60
2018-07-12T12:11:22.288Z,17.50
2018-07-12T12:12:22.283Z,15.00
2018-07-12T12:13:22.287Z,14.30
2018-07-12T12:14:22.273Z,13.80
2018-07-12T12:15:22.271Z,14.10
2018-07-12T12:16:22.268Z,18.20
2018-07-12T12:17:22.263Z,16.00
2018-07-12T12:18:22.269Z,14.20
2018-07-12T12:19:22.306Z,11.20
2018-07-12T12:20:22.265Z,11.70
2018-07-12T12:21:22.262Z,12.00
2018-07-12T12:22:22.247Z,13.70
2018-07-12T12:23:22.241Z,9.80
2018-07-12T12:24:22.240Z,12.90
2018-07-12T12:25:22.255Z,14.50
2018-07-12T12:26:22.282Z,11.60
2018-07-12T12:27:22.223Z,12.80
2018-07-12T12:28:22.241Z,11.60
2018-07-12T12:29:22.211Z,13.40
2018-07-12T12:30:22.219Z,11.80
2018-07-12T12:31:22.206Z,12.40
2018-07-12T12:32:22.202Z,14.80
2018-07-12T12:33:22.219Z,17.60
2018-07-12T12:34:22.191Z,10.00
2018-07-12T12:35:22.187Z,12.20
2018-07-12T12:36:22.180Z,12.40
2018-07-12T12:37:22.178Z,11.80
2018-07-12T12:38:22.167Z,8.60
2018-07-12T12:39:22.265Z,8.40
2018-07-12T12:40:22.159Z,14.30
2018-07-12T12:41:22.159Z,14.30
2018-07-12T12:42:22.150Z,12.20
2018-07-12T12:43:22.345Z,14.10
2018-07-12T12:44:22.542Z,12.70
2018-07-12T12:45:22.138Z,11.50
2018-07-12T12:46:22.129Z,14.40
2018-07-12T12:47:22.118Z,11.00
2018-07-12T12:48:22.112Z,13.20
2018-07-12T12:49:22.109Z,13.00
2018-07-12T12:50:22.098Z,11.00
2018-07-12T12:51:22.093Z,11.80
2018-07-12T12:52:22.088Z,10.10
2018-07-12T12:53:22.079Z,11.10
2018-07-12T12:54:22.078Z,12.50
2018-07-12T12:55:22.065Z,12.00
2018-07-12T12:56:22.067Z,9.80